sensor_id;sensor_type;location;lat;lon;timestamp;pressure;altitude;pressure_sealevel;temperature;humidity
48848;BME280;75039;51.970;5.660;2024-02-26T00:00:37;100000.16;;;9.19;58.51
48848;BME280;75039;51.970;5.660;2024-02-26T00:03:04;100004.66;;;9.19;58.33
48848;BME280;75039;51.970;5.660;2024-02-26T00:05:31;100002.94;;;9.18;58.47
48848;BME280;75039;51.970;5.660;2024-02-26T00:07:58;100002.94;;;9.18;58.38
48848;BME280;75039;51.970;5.660;2024-02-26T00:10:28;100008.31;;;9.18;58.33
48848;BME280;75039;51.970;5.660;2024-02-26T00:12:55;100003.91;;;9.17;58.51
48848;BME280;75039;51.970;5.660;2024-02-26T00:15:22;100000.25;;;9.18;58.28
48848;BME280;75039;51.970;5.660;2024-02-26T00:17:49;100007.56;;;9.16;58.27
48848;BME280;75039;51.970;5.660;2024-02-26T00:20:16;99999.53;;;9.16;58.39
48848;BME280;75039;51.970;5.660;2024-02-26T00:22:42;99999.53;;;9.16;58.29
48848;BME280;75039;51.970;5.660;2024-02-26T00:25:10;99994.19;;;9.16;58.39
48848;BME280;75039;51.970;5.660;2024-02-26T00:27:39;100000.50;;;9.15;58.38
48848;BME280;75039;51.970;5.660;2024-02-26T00:30:08;99999.66;;;9.14;58.48
48848;BME280;75039;51.970;5.660;2024-02-26T00:32:35;100004.16;;;9.14;58.11
48848;BME280;75039;51.970;5.660;2024-02-26T00:35:02;99998.81;;;9.14;58.11
48848;BME280;75039;51.970;5.660;2024-02-26T00:37:29;100003.31;;;9.13;58.42
48848;BME280;75039;51.970;5.660;2024-02-26T00:39:56;99997.94;;;9.13;58.29
48848;BME280;75039;51.970;5.660;2024-02-26T00:42:22;99998.81;;;9.14;58.22
48848;BME280;75039;51.970;5.660;2024-02-26T00:44:49;99996.97;;;9.14;58.42
48848;BME280;75039;51.970;5.660;2024-02-26T00:47:16;99996.97;;;9.14;58.36
48848;BME280;75039;51.970;5.660;2024-02-26T00:49:43;99992.34;;;9.16;58.06
48848;BME280;75039;51.970;5.660;2024-02-26T00:52:10;99982.50;;;9.17;58.30
48848;BME280;75039;51.970;5.660;2024-02-26T00:54:37;99992.22;;;9.18;58.27
48848;BME280;75039;51.970;5.660;2024-02-26T00:57:03;99990.41;;;9.18;58.27
48848;BME280;75039;51.970;5.660;2024-02-26T00:59:30;99997.47;;;9.19;58.21
48848;BME280;75039;51.970;5.660;2024-02-26T01:01:57;99988.44;;;9.20;57.96
48848;BME280;75039;51.970;5.660;2024-02-26T01:04:25;99983.94;;;9.21;57.89
48848;BME280;75039;51.970;5.660;2024-02-26T01:06:51;99979.44;;;9.21;57.86
48848;BME280;75039;51.970;5.660;2024-02-26T01:09:18;99980.28;;;9.22;57.93
48848;BME280;75039;51.970;5.660;2024-02-26T01:11:45;99989.31;;;9.21;57.99
48848;BME280;75039;51.970;5.660;2024-02-26T01:14:13;99979.44;;;9.21;57.78
48848;BME280;75039;51.970;5.660;2024-02-26T01:16:40;99970.44;;;9.22;58.02
48848;BME280;75039;51.970;5.660;2024-02-26T01:19:06;99979.31;;;9.23;57.89
48848;BME280;75039;51.970;5.660;2024-02-26T01:21:34;99972.25;;;9.22;58.07
48848;BME280;75039;51.970;5.660;2024-02-26T01:24:01;99965.94;;;9.23;57.97
48848;BME280;75039;51.970;5.660;2024-02-26T01:26:27;99973.00;;;9.24;57.55
48848;BME280;75039;51.970;5.660;2024-02-26T01:28:54;99970.44;;;9.22;57.68
48848;BME280;75039;51.970;5.660;2024-02-26T01:31:22;99969.59;;;9.22;57.86
48848;BME280;75039;51.970;5.660;2024-02-26T01:33:49;99967.03;;;9.20;57.55
48848;BME280;75039;51.970;5.660;2024-02-26T01:36:15;99975.78;;;9.22;57.75
48848;BME280;75039;51.970;5.660;2024-02-26T01:38:42;99968.84;;;9.20;57.81
48848;BME280;75039;51.970;5.660;2024-02-26T01:41:09;99986.75;;;9.19;57.57
48848;BME280;75039;51.970;5.660;2024-02-26T01:43:36;99982.25;;;9.20;57.70
48848;BME280;75039;51.970;5.660;2024-02-26T01:46:03;99992.09;;;9.19;57.50
48848;BME280;75039;51.970;5.660;2024-02-26T01:48:32;99992.09;;;9.19;57.77
48848;BME280;75039;51.970;5.660;2024-02-26T01:50:59;99992.97;;;9.20;57.52
48848;BME280;75039;51.970;5.660;2024-02-26T01:53:25;100004.41;;;9.22;57.61
48848;BME280;75039;51.970;5.660;2024-02-26T01:55:52;100002.56;;;9.22;57.48
48848;BME280;75039;51.970;5.660;2024-02-26T01:58:20;100007.94;;;9.22;57.49
48848;BME280;75039;51.970;5.660;2024-02-26T02:00:46;100015.00;;;9.23;57.56
48848;BME280;75039;51.970;5.660;2024-02-26T02:03:13;100007.81;;;9.24;57.66
48848;BME280;75039;51.970;5.660;2024-02-26T02:05:40;100015.72;;;9.26;57.85
48848;BME280;75039;51.970;5.660;2024-02-26T02:08:11;100026.44;;;9.26;57.60
48848;BME280;75039;51.970;5.660;2024-02-26T02:10:38;100029.00;;;9.27;57.45
48848;BME280;75039;51.970;5.660;2024-02-26T02:13:06;100030.72;;;9.28;57.64
48848;BME280;75039;51.970;5.660;2024-02-26T02:15:32;100035.22;;;9.28;57.65
48848;BME280;75039;51.970;5.660;2024-02-26T02:17:59;100036.19;;;9.27;57.58
48848;BME280;75039;51.970;5.660;2024-02-26T02:20:32;100039.72;;;9.27;57.49
48848;BME280;75039;51.970;5.660;2024-02-26T02:22:59;100040.69;;;9.26;57.56
48848;BME280;75039;51.970;5.660;2024-02-26T02:25:26;100021.94;;;9.26;57.49
48848;BME280;75039;51.970;5.660;2024-02-26T02:27:56;100039.84;;;9.26;57.47
48848;BME280;75039;51.970;5.660;2024-02-26T02:30:25;100048.75;;;9.26;57.49
48848;BME280;75039;51.970;5.660;2024-02-26T02:32:53;100043.38;;;9.26;57.33
48848;BME280;75039;51.970;5.660;2024-02-26T02:35:20;100049.72;;;9.25;57.47
48848;BME280;75039;51.970;5.660;2024-02-26T02:37:46;100040.81;;;9.24;57.37
48848;BME280;75039;51.970;5.660;2024-02-26T02:40:13;100039.84;;;9.26;57.69
48848;BME280;75039;51.970;5.660;2024-02-26T02:42:40;100046.06;;;9.26;57.58
48848;BME280;75039;51.970;5.660;2024-02-26T02:45:07;100044.22;;;9.27;57.43
48848;BME280;75039;51.970;5.660;2024-02-26T02:47:36;100039.72;;;9.27;57.52
48848;BME280;75039;51.970;5.660;2024-02-26T02:50:04;100046.06;;;9.26;57.30
48848;BME280;75039;51.970;5.660;2024-02-26T02:52:31;100048.84;;;9.24;57.55
48848;BME280;75039;51.970;5.660;2024-02-26T02:54:58;100053.38;;;9.24;57.48
48848;BME280;75039;51.970;5.660;2024-02-26T02:57:25;100058.97;;;9.21;57.27
48848;BME280;75039;51.970;5.660;2024-02-26T02:59:51;100050.06;;;9.20;57.51
48848;BME280;75039;51.970;5.660;2024-02-26T03:02:18;100048.47;;;9.18;57.46
48848;BME280;75039;51.970;5.660;2024-02-26T03:04:45;100046.03;;;9.15;57.67
48848;BME280;75039;51.970;5.660;2024-02-26T03:07:12;100046.28;;;9.12;57.42
48848;BME280;75039;51.970;5.660;2024-02-26T03:09:38;100057.72;;;9.14;57.46
48848;BME280;75039;51.970;5.660;2024-02-26T03:12:05;100060.41;;;9.14;57.75
48848;BME280;75039;51.970;5.660;2024-02-26T03:14:32;100064.78;;;9.15;57.59
48848;BME280;75039;51.970;5.660;2024-02-26T03:16:59;100065.66;;;9.15;57.69
48848;BME280;75039;51.970;5.660;2024-02-26T03:19:25;100066.50;;;9.16;57.75
48848;BME280;75039;51.970;5.660;2024-02-26T03:21:52;100064.56;;;9.18;57.72
48848;BME280;75039;51.970;5.660;2024-02-26T03:24:19;100062.84;;;9.17;57.45
48848;BME280;75039;51.970;5.660;2024-02-26T03:26:46;100068.94;;;9.19;57.67
48848;BME280;75039;51.970;5.660;2024-02-26T03:29:12;100068.81;;;9.20;57.40
48848;BME280;75039;51.970;5.660;2024-02-26T03:31:39;100065.16;;;9.21;57.55
48848;BME280;75039;51.970;5.660;2024-02-26T03:34:06;100071.38;;;9.22;57.52
48848;BME280;75039;51.970;5.660;2024-02-26T03:36:33;100069.56;;;9.22;57.35
48848;BME280;75039;51.970;5.660;2024-02-26T03:38:59;100073.81;;;9.25;57.68
48848;BME280;75039;51.970;5.660;2024-02-26T03:41:26;100071.88;;;9.27;57.61
48848;BME280;75039;51.970;5.660;2024-02-26T03:43:53;100074.31;;;9.30;57.64
48848;BME280;75039;51.970;5.660;2024-02-26T03:46:20;100086.63;;;9.33;57.56
48848;BME280;75039;51.970;5.660;2024-02-26T03:48:46;100079.44;;;9.33;57.34
48848;BME280;75039;51.970;5.660;2024-02-26T03:51:13;100085.53;;;9.35;57.16
48848;BME280;75039;51.970;5.660;2024-02-26T03:53:40;100078.34;;;9.36;57.36
48848;BME280;75039;51.970;5.660;2024-02-26T03:56:07;100075.66;;;9.36;57.15
48848;BME280;75039;51.970;5.660;2024-02-26T03:58:34;100081.75;;;9.38;57.17
48848;BME280;75039;51.970;5.660;2024-02-26T04:01:01;100080.78;;;9.39;56.94
48848;BME280;75039;51.970;5.660;2024-02-26T04:03:28;100087.84;;;9.40;56.88
48848;BME280;75039;51.970;5.660;2024-02-26T04:05:54;100090.53;;;9.40;56.82
48848;BME280;75039;51.970;5.660;2024-02-26T04:08:21;100087.13;;;9.38;56.88
48848;BME280;75039;51.970;5.660;2024-02-26T04:10:48;100081.03;;;9.36;56.86
48848;BME280;75039;51.970;5.660;2024-02-26T04:13:15;100091.00;;;9.34;56.99
48848;BME280;75039;51.970;5.660;2024-02-26T04:15:42;100085.88;;;9.31;56.72
48848;BME280;75039;51.970;5.660;2024-02-26T04:18:09;100089.53;;;9.30;56.73
48848;BME280;75039;51.970;5.660;2024-02-26T04:20:36;100092.47;;;9.27;56.80
48848;BME280;75039;51.970;5.660;2024-02-26T04:23:03;100093.56;;;9.24;56.87
48848;BME280;75039;51.970;5.660;2024-02-26T04:25:30;100086.72;;;9.20;56.94
48848;BME280;75039;51.970;5.660;2024-02-26T04:27:56;100093.06;;;9.19;57.03
48848;BME280;75039;51.970;5.660;2024-02-26T04:30:23;100090.63;;;9.16;57.10
48848;BME280;75039;51.970;5.660;2024-02-26T04:32:50;100096.19;;;9.13;57.01
48848;BME280;75039;51.970;5.660;2024-02-26T04:35:17;100101.69;;;9.11;57.03
48848;BME280;75039;51.970;5.660;2024-02-26T04:37:44;100101.81;;;9.10;57.25
48848;BME280;75039;51.970;5.660;2024-02-26T04:40:11;100106.41;;;9.08;57.27
48848;BME280;75039;51.970;5.660;2024-02-26T04:42:37;100104.72;;;9.07;57.43
48848;BME280;75039;51.970;5.660;2024-02-26T04:45:06;100106.66;;;9.05;57.39
48848;BME280;75039;51.970;5.660;2024-02-26T04:47:34;100113.84;;;9.04;57.39
48848;BME280;75039;51.970;5.660;2024-02-26T04:50:02;100109.69;;;9.00;57.25
48848;BME280;75039;51.970;5.660;2024-02-26T04:52:28;100103.72;;;8.97;57.48
48848;BME280;75039;51.970;5.660;2024-02-26T04:54:55;100112.94;;;8.93;57.31
48848;BME280;75039;51.970;5.660;2024-02-26T04:57:22;100129.94;;;8.91;57.72
48848;BME280;75039;51.970;5.660;2024-02-26T04:59:49;100133.59;;;8.90;57.88
48848;BME280;75039;51.970;5.660;2024-02-26T05:02:15;100129.22;;;8.89;57.73
48848;BME280;75039;51.970;5.660;2024-02-26T05:04:42;100138.22;;;8.88;57.86
48848;BME280;75039;51.970;5.660;2024-02-26T05:07:09;100125.78;;;8.87;57.95
48848;BME280;75039;51.970;5.660;2024-02-26T05:09:36;100130.31;;;8.87;57.94
48848;BME280;75039;51.970;5.660;2024-02-26T05:12:03;100122.38;;;8.85;57.87
48848;BME280;75039;51.970;5.660;2024-02-26T05:14:30;100130.41;;;8.85;57.88
48848;BME280;75039;51.970;5.660;2024-02-26T05:16:57;100137.59;;;8.85;58.32
48848;BME280;75039;51.970;5.660;2024-02-26T05:19:23;100142.09;;;8.84;58.01
48848;BME280;75039;51.970;5.660;2024-02-26T05:21:50;100128.72;;;8.84;58.16
48848;BME280;75039;51.970;5.660;2024-02-26T05:24:17;100129.69;;;8.83;58.28
48848;BME280;75039;51.970;5.660;2024-02-26T05:26:45;100138.56;;;8.84;58.40
48848;BME280;75039;51.970;5.660;2024-02-26T05:29:12;100139.66;;;8.81;58.31
48848;BME280;75039;51.970;5.660;2024-02-26T05:31:38;100141.59;;;8.79;58.38
48848;BME280;75039;51.970;5.660;2024-02-26T05:34:05;100134.63;;;8.77;58.37
48848;BME280;75039;51.970;5.660;2024-02-26T05:36:32;100136.47;;;8.76;58.40
48848;BME280;75039;51.970;5.660;2024-02-26T05:39:00;100136.47;;;8.76;58.74
48848;BME280;75039;51.970;5.660;2024-02-26T05:41:27;100139.38;;;8.73;58.79
48848;BME280;75039;51.970;5.660;2024-02-26T05:43:54;100157.38;;;8.71;58.93
48848;BME280;75039;51.970;5.660;2024-02-26T05:46:21;100144.94;;;8.70;58.83
48848;BME280;75039;51.970;5.660;2024-02-26T05:48:51;100146.78;;;8.70;58.77
48848;BME280;75039;51.970;5.660;2024-02-26T05:51:18;100160.16;;;8.70;58.84
48848;BME280;75039;51.970;5.660;2024-02-26T05:53:45;100155.78;;;8.69;59.11
48848;BME280;75039;51.970;5.660;2024-02-26T05:56:13;100163.06;;;8.67;59.21
48848;BME280;75039;51.970;5.660;2024-02-26T05:58:40;100163.28;;;8.64;59.00
48848;BME280;75039;51.970;5.660;2024-02-26T06:01:07;100167.91;;;8.62;59.36
48848;BME280;75039;51.970;5.660;2024-02-26T06:03:34;100166.31;;;8.59;59.41
48848;BME280;75039;51.970;5.660;2024-02-26T06:06:01;100168.97;;;8.59;59.48
48848;BME280;75039;51.970;5.660;2024-02-26T06:08:28;100163.63;;;8.59;59.39
48848;BME280;75039;51.970;5.660;2024-02-26T06:10:55;100173.47;;;8.58;59.59
48848;BME280;75039;51.970;5.660;2024-02-26T06:13:22;100182.25;;;8.60;59.76
48848;BME280;75039;51.970;5.660;2024-02-26T06:15:48;100168.88;;;8.60;59.56
48848;BME280;75039;51.970;5.660;2024-02-26T06:18:15;100179.47;;;8.62;59.81
48848;BME280;75039;51.970;5.660;2024-02-26T06:20:42;100179.22;;;8.65;59.71
48848;BME280;75039;51.970;5.660;2024-02-26T06:23:09;100185.31;;;8.67;59.72
48848;BME280;75039;51.970;5.660;2024-02-26T06:25:36;100180.72;;;8.69;59.73
48848;BME280;75039;51.970;5.660;2024-02-26T06:28:03;100201.06;;;8.72;59.59
48848;BME280;75039;51.970;5.660;2024-02-26T06:30:30;100194.72;;;8.73;59.74
48848;BME280;75039;51.970;5.660;2024-02-26T06:32:56;100192.06;;;8.73;59.71
48848;BME280;75039;51.970;5.660;2024-02-26T06:35:23;100194.63;;;8.74;59.58
48848;BME280;75039;51.970;5.660;2024-02-26T06:37:50;100196.44;;;8.74;59.60
48848;BME280;75039;51.970;5.660;2024-02-26T06:40:19;100195.25;;;8.78;59.76
48848;BME280;75039;51.970;5.660;2024-02-26T06:42:46;100197.06;;;8.77;59.41
48848;BME280;75039;51.970;5.660;2024-02-26T06:45:15;100200.59;;;8.78;59.56
48848;BME280;75039;51.970;5.660;2024-02-26T06:47:42;100214.31;;;8.73;59.41
48848;BME280;75039;51.970;5.660;2024-02-26T06:50:11;100206.53;;;8.70;59.56
48848;BME280;75039;51.970;5.660;2024-02-26T06:52:39;100228.16;;;8.67;59.67
48848;BME280;75039;51.970;5.660;2024-02-26T06:55:05;100211.56;;;8.62;59.71
48848;BME280;75039;51.970;5.660;2024-02-26T06:57:35;100222.50;;;8.59;59.89
48848;BME280;75039;51.970;5.660;2024-02-26T07:00:02;100234.28;;;8.56;59.76
48848;BME280;75039;51.970;5.660;2024-02-26T07:02:31;100237.94;;;8.55;59.95
48848;BME280;75039;51.970;5.660;2024-02-26T07:04:57;100239.75;;;8.55;60.08
48848;BME280;75039;51.970;5.660;2024-02-26T07:07:25;100240.63;;;8.55;59.92
48848;BME280;75039;51.970;5.660;2024-02-26T07:09:51;100256.66;;;8.55;60.27
48848;BME280;75039;51.970;5.660;2024-02-26T07:12:18;100243.28;;;8.55;60.23
48848;BME280;75039;51.970;5.660;2024-02-26T07:14:48;100259.34;;;8.55;60.17
48848;BME280;75039;51.970;5.660;2024-02-26T07:17:15;100249.50;;;8.56;59.90
48848;BME280;75039;51.970;5.660;2024-02-26T07:19:42;100257.53;;;8.56;60.52
48848;BME280;75039;51.970;5.660;2024-02-26T07:22:09;100265.56;;;8.56;60.41
48848;BME280;75039;51.970;5.660;2024-02-26T07:24:36;100261.91;;;8.57;60.53
48848;BME280;75039;51.970;5.660;2024-02-26T07:27:03;100269.31;;;8.53;60.69
48848;BME280;75039;51.970;5.660;2024-02-26T07:29:30;100246.19;;;8.52;60.62
48848;BME280;75039;51.970;5.660;2024-02-26T07:31:57;100280.34;;;8.49;60.65
48848;BME280;75039;51.970;5.660;2024-02-26T07:34:24;100260.75;;;8.48;60.80
48848;BME280;75039;51.970;5.660;2024-02-26T07:36:56;100274.47;;;8.44;60.81
48848;BME280;75039;51.970;5.660;2024-02-26T07:39:23;100274.78;;;8.39;61.01
48848;BME280;75039;51.970;5.660;2024-02-26T07:41:50;100277.47;;;8.39;61.03
48848;BME280;75039;51.970;5.660;2024-02-26T07:44:20;100291.81;;;8.38;61.30
48848;BME280;75039;51.970;5.660;2024-02-26T07:46:47;100276.81;;;8.36;61.57
48848;BME280;75039;51.970;5.660;2024-02-26T07:49:13;100284.84;;;8.36;61.62
48848;BME280;75039;51.970;5.660;2024-02-26T07:51:40;100281.44;;;8.34;61.81
48848;BME280;75039;51.970;5.660;2024-02-26T07:54:07;100284.84;;;8.36;61.83
48848;BME280;75039;51.970;5.660;2024-02-26T07:56:34;100287.31;;;8.39;61.91
48848;BME280;75039;51.970;5.660;2024-02-26T07:59:01;100304.34;;;8.38;62.28
48848;BME280;75039;51.970;5.660;2024-02-26T08:01:27;100294.38;;;8.40;62.07
48848;BME280;75039;51.970;5.660;2024-02-26T08:03:54;100293.53;;;8.39;62.05
48848;BME280;75039;51.970;5.660;2024-02-26T08:06:23;100281.84;;;8.40;62.37
48848;BME280;75039;51.970;5.660;2024-02-26T08:08:50;100307.97;;;8.37;62.38
48848;BME280;75039;51.970;5.660;2024-02-26T08:11:17;100310.44;;;8.40;62.47
48848;BME280;75039;51.970;5.660;2024-02-26T08:13:44;100301.53;;;8.39;62.67
48848;BME280;75039;51.970;5.660;2024-02-26T08:16:10;100321.03;;;8.41;62.56
48848;BME280;75039;51.970;5.660;2024-02-26T08:18:39;100309.47;;;8.41;62.54
48848;BME280;75039;51.970;5.660;2024-02-26T08:21:07;100297.69;;;8.43;62.60
48848;BME280;75039;51.970;5.660;2024-02-26T08:23:35;100324.34;;;8.45;62.80
48848;BME280;75039;51.970;5.660;2024-02-26T08:26:02;100319.00;;;8.45;62.47
48848;BME280;75039;51.970;5.660;2024-02-26T08:28:30;100306.56;;;8.44;62.67
48848;BME280;75039;51.970;5.660;2024-02-26T08:30:57;100326.28;;;8.43;62.59
48848;BME280;75039;51.970;5.660;2024-02-26T08:33:24;100330.66;;;8.44;62.98
48848;BME280;75039;51.970;5.660;2024-02-26T08:35:51;100326.28;;;8.43;62.67
48848;BME280;75039;51.970;5.660;2024-02-26T08:38:18;100337.09;;;8.41;63.03
48848;BME280;75039;51.970;5.660;2024-02-26T08:40:46;100332.47;;;8.43;62.95
48848;BME280;75039;51.970;5.660;2024-02-26T08:43:12;100334.19;;;8.44;63.02
48848;BME280;75039;51.970;5.660;2024-02-26T08:45:39;100349.28;;;8.45;63.18
48848;BME280;75039;51.970;5.660;2024-02-26T08:48:06;100346.59;;;8.45;63.43
48848;BME280;75039;51.970;5.660;2024-02-26T08:50:34;100351.00;;;8.46;63.28
48848;BME280;75039;51.970;5.660;2024-02-26T08:53:01;100356.22;;;8.48;63.35
48848;BME280;75039;51.970;5.660;2024-02-26T08:55:33;100353.56;;;8.48;63.53
48848;BME280;75039;51.970;5.660;2024-02-26T08:58:00;100366.84;;;8.49;63.44
48848;BME280;75039;51.970;5.660;2024-02-26T09:00:26;100361.59;;;8.48;63.71
48848;BME280;75039;51.970;5.660;2024-02-26T09:02:53;100351.63;;;8.50;63.65
48848;BME280;75039;51.970;5.660;2024-02-26T09:05:20;100350.03;;;8.47;63.64
48848;BME280;75039;51.970;5.660;2024-02-26T09:07:46;100368.00;;;8.45;63.86
48848;BME280;75039;51.970;5.660;2024-02-26T09:10:13;100373.25;;;8.47;63.83
48848;BME280;75039;51.970;5.660;2024-02-26T09:12:40;100362.56;;;8.47;64.13
48848;BME280;75039;51.970;5.660;2024-02-26T09:15:07;100370.47;;;8.48;63.83
48848;BME280;75039;51.970;5.660;2024-02-26T09:17:34;100380.97;;;8.51;63.98
48848;BME280;75039;51.970;5.660;2024-02-26T09:20:02;100387.06;;;8.53;64.33
48848;BME280;75039;51.970;5.660;2024-02-26T09:22:29;100390.59;;;8.54;64.03
48848;BME280;75039;51.970;5.660;2024-02-26T09:24:56;100391.56;;;8.53;64.40
48848;BME280;75039;51.970;5.660;2024-02-26T09:27:22;100385.34;;;8.52;64.25
48848;BME280;75039;51.970;5.660;2024-02-26T09:29:50;100391.44;;;8.54;64.25
48848;BME280;75039;51.970;5.660;2024-02-26T09:32:16;100397.78;;;8.53;64.37
48848;BME280;75039;51.970;5.660;2024-02-26T09:34:44;100402.25;;;8.53;64.51
48848;BME280;75039;51.970;5.660;2024-02-26T09:37:11;100384.38;;;8.53;64.69
48848;BME280;75039;51.970;5.660;2024-02-26T09:39:47;100421.00;;;8.53;64.54
48848;BME280;75039;51.970;5.660;2024-02-26T09:42:15;100424.44;;;8.55;64.47
48848;BME280;75039;51.970;5.660;2024-02-26T09:44:44;100420.78;;;8.56;64.67
48848;BME280;75039;51.970;5.660;2024-02-26T09:47:12;100412.66;;;8.57;64.84
48848;BME280;75039;51.970;5.660;2024-02-26T09:49:46;100435.88;;;8.57;64.71
48848;BME280;75039;51.970;5.660;2024-02-26T09:52:15;100436.75;;;8.57;64.66
48848;BME280;75039;51.970;5.660;2024-02-26T09:54:42;100427.84;;;8.57;65.02
48848;BME280;75039;51.970;5.660;2024-02-26T09:57:13;100436.19;;;8.52;64.85
48848;BME280;75039;51.970;5.660;2024-02-26T09:59:44;100438.88;;;8.52;64.88
48848;BME280;75039;51.970;5.660;2024-02-26T10:02:14;100439.72;;;8.53;65.05
48848;BME280;75039;51.970;5.660;2024-02-26T10:04:42;100443.28;;;8.53;64.98
48848;BME280;75039;51.970;5.660;2024-02-26T10:07:16;100437.06;;;8.53;64.87
48848;BME280;75039;51.970;5.660;2024-02-26T10:09:44;100446.81;;;8.54;65.10
48848;BME280;75039;51.970;5.660;2024-02-26T10:12:11;100438.78;;;8.54;65.04
48848;BME280;75039;51.970;5.660;2024-02-26T10:14:44;100454.84;;;8.54;65.16
48848;BME280;75039;51.970;5.660;2024-02-26T10:17:11;100443.16;;;8.55;65.21
48848;BME280;75039;51.970;5.660;2024-02-26T10:19:37;100461.03;;;8.54;65.35
48848;BME280;75039;51.970;5.660;2024-02-26T10:22:05;100462.84;;;8.54;65.23
48848;BME280;75039;51.970;5.660;2024-02-26T10:24:32;100472.59;;;8.55;65.45
48848;BME280;75039;51.970;5.660;2024-02-26T10:27:01;100477.97;;;8.55;65.30
48848;BME280;75039;51.970;5.660;2024-02-26T10:29:28;100481.50;;;8.55;65.41
48848;BME280;75039;51.970;5.660;2024-02-26T10:31:55;100494.88;;;8.55;65.16
48848;BME280;75039;51.970;5.660;2024-02-26T10:34:22;100493.16;;;8.54;65.41
48848;BME280;75039;51.970;5.660;2024-02-26T10:36:50;100493.91;;;8.56;65.39
48848;BME280;75039;51.970;5.660;2024-02-26T10:39:20;100504.50;;;8.58;65.44
48848;BME280;75039;51.970;5.660;2024-02-26T10:41:48;100511.56;;;8.59;65.72
48848;BME280;75039;51.970;5.660;2024-02-26T10:44:15;100513.28;;;8.60;65.64
48848;BME280;75039;51.970;5.660;2024-02-26T10:46:47;100516.81;;;8.60;65.44
48848;BME280;75039;51.970;5.660;2024-02-26T10:49:16;100527.44;;;8.62;65.66
48848;BME280;75039;51.970;5.660;2024-02-26T10:51:54;100514.03;;;8.62;65.41
48848;BME280;75039;51.970;5.660;2024-02-26T10:54:24;100523.69;;;8.65;65.48
48848;BME280;75039;51.970;5.660;2024-02-26T10:56:53;100536.00;;;8.67;65.73
48848;BME280;75039;51.970;5.660;2024-02-26T10:59:22;100531.50;;;8.68;65.40
48848;BME280;75039;51.970;5.660;2024-02-26T11:01:50;100534.28;;;8.66;65.43
48848;BME280;75039;51.970;5.660;2024-02-26T11:04:18;100538.69;;;8.67;65.75
48848;BME280;75039;51.970;5.660;2024-02-26T11:06:45;100544.03;;;8.67;65.71
48848;BME280;75039;51.970;5.660;2024-02-26T11:09:14;100545.84;;;8.67;65.75
48848;BME280;75039;51.970;5.660;2024-02-26T11:11:42;100545.00;;;8.66;65.51
48848;BME280;75039;51.970;5.660;2024-02-26T11:14:09;100553.03;;;8.66;65.63
48848;BME280;75039;51.970;5.660;2024-02-26T11:16:39;100566.41;;;8.66;65.60
48848;BME280;75039;51.970;5.660;2024-02-26T11:19:09;100566.31;;;8.68;65.72
48848;BME280;75039;51.970;5.660;2024-02-26T11:21:37;100568.13;;;8.67;65.79
48848;BME280;75039;51.970;5.660;2024-02-26T11:24:12;100574.13;;;8.71;65.61
48848;BME280;75039;51.970;5.660;2024-02-26T11:27:00;100584.75;;;8.72;65.74
48848;BME280;75039;51.970;5.660;2024-02-26T11:29:34;100573.94;;;8.74;65.91
48848;BME280;75039;51.970;5.660;2024-02-26T11:32:02;100585.50;;;8.74;65.90
48848;BME280;75039;51.970;5.660;2024-02-26T11:34:29;100590.00;;;8.74;65.85
48848;BME280;75039;51.970;5.660;2024-02-26T11:36:56;100593.72;;;8.71;65.95
48848;BME280;75039;51.970;5.660;2024-02-26T11:39:24;100591.06;;;8.71;65.72
48848;BME280;75039;51.970;5.660;2024-02-26T11:41:50;100587.53;;;8.71;65.91
48848;BME280;75039;51.970;5.660;2024-02-26T11:44:29;100601.66;;;8.73;65.78
48848;BME280;75039;51.970;5.660;2024-02-26T11:46:56;100601.66;;;8.73;65.98
48848;BME280;75039;51.970;5.660;2024-02-26T11:49:30;100589.25;;;8.72;66.00
48848;BME280;75039;51.970;5.660;2024-02-26T11:51:58;100596.63;;;8.68;65.81
48848;BME280;75039;51.970;5.660;2024-02-26T11:54:47;100602.94;;;8.67;66.04
48848;BME280;75039;51.970;5.660;2024-02-26T12:00:17;100598.84;;;8.62;65.82
48848;BME280;75039;51.970;5.660;2024-02-26T12:02:50;100605.81;;;8.64;65.88
48848;BME280;75039;51.970;5.660;2024-02-26T12:05:24;100596.81;;;8.65;66.25
48848;BME280;75039;51.970;5.660;2024-02-26T12:07:59;100604.84;;;8.65;65.99
48848;BME280;75039;51.970;5.660;2024-02-26T12:10:28;100592.44;;;8.64;66.06
48848;BME280;75039;51.970;5.660;2024-02-26T12:13:03;100611.16;;;8.64;66.19
48848;BME280;75039;51.970;5.660;2024-02-26T12:15:34;100595.88;;;8.66;66.30
48848;BME280;75039;51.970;5.660;2024-02-26T12:18:04;100619.00;;;8.67;65.95
48848;BME280;75039;51.970;5.660;2024-02-26T12:20:31;100609.91;;;8.70;66.32
48848;BME280;75039;51.970;5.660;2024-02-26T12:22:58;100616.13;;;8.70;66.29
48848;BME280;75039;51.970;5.660;2024-02-26T12:25:26;100633.88;;;8.71;66.50
48848;BME280;75039;51.970;5.660;2024-02-26T12:27:54;100624.91;;;8.72;66.40
48848;BME280;75039;51.970;5.660;2024-02-26T12:30:21;100629.09;;;8.76;66.30
48848;BME280;75039;51.970;5.660;2024-02-26T12:32:49;100636.06;;;8.79;66.43
48848;BME280;75039;51.970;5.660;2024-02-26T12:35:16;100634.25;;;8.79;66.18
48848;BME280;75039;51.970;5.660;2024-02-26T12:37:44;100627.81;;;8.82;66.24
48848;BME280;75039;51.970;5.660;2024-02-26T12:40:11;100643.78;;;8.83;66.46
48848;BME280;75039;51.970;5.660;2024-02-26T12:42:39;100643.56;;;8.86;66.48
48848;BME280;75039;51.970;5.660;2024-02-26T12:45:11;100641.66;;;8.88;66.28
48848;BME280;75039;51.970;5.660;2024-02-26T12:47:39;100653.31;;;8.87;66.26
48848;BME280;75039;51.970;5.660;2024-02-26T12:50:07;100654.19;;;8.88;66.15
48848;BME280;75039;51.970;5.660;2024-02-26T12:52:44;100653.31;;;8.87;66.06
48848;BME280;75039;51.970;5.660;2024-02-26T12:55:18;100643.47;;;8.88;65.95
48848;BME280;75039;51.970;5.660;2024-02-26T12:57:45;100654.09;;;8.89;65.68
48848;BME280;75039;51.970;5.660;2024-02-26T13:00:16;100664.63;;;8.93;66.06
48848;BME280;75039;51.970;5.660;2024-02-26T13:02:44;100674.38;;;8.94;65.93
48848;BME280;75039;51.970;5.660;2024-02-26T13:05:13;100674.25;;;8.95;66.01
48848;BME280;75039;51.970;5.660;2024-02-26T13:07:42;100668.81;;;8.97;65.85